createdAt,value
2023-01-19T00:00:30.326Z,6.47
2023-01-19T00:02:56.972Z,9.02
2023-01-19T00:05:23.519Z,8.10
2023-01-19T00:07:50.044Z,6.70
2023-01-19T00:10:17.032Z,6.73
2023-01-19T00:12:43.630Z,5.00
2023-01-19T00:15:10.767Z,8.87
2023-01-19T00:17:37.288Z,10.07
2023-01-19T00:20:04.062Z,8.90
2023-01-19T00:22:30.590Z,8.15
2023-01-19T00:24:57.470Z,6.70
2023-01-19T00:27:24.726Z,6.20
2023-01-19T00:29:51.259Z,6.85
2023-01-19T00:32:18.145Z,8.93
2023-01-19T00:34:49.590Z,7.47
2023-01-19T00:37:17.234Z,5.57
2023-01-19T00:39:43.962Z,8.13
2023-01-19T00:42:32.717Z,6.47
2023-01-19T00:44:59.246Z,9.90
2023-01-19T00:47:25.929Z,8.27
2023-01-19T00:49:52.606Z,8.50
2023-01-19T00:52:19.655Z,6.32
2023-01-19T00:54:46.217Z,6.82
2023-01-19T00:57:12.822Z,6.53
2023-01-19T00:59:39.526Z,6.77
2023-01-19T01:02:06.223Z,6.38
2023-01-19T01:04:33.018Z,5.30
2023-01-19T01:06:59.725Z,6.65
2023-01-19T01:09:26.374Z,7.57
2023-01-19T01:11:53.143Z,8.57
2023-01-19T01:14:19.747Z,8.55
2023-01-19T01:16:46.696Z,6.13
2023-01-19T01:19:13.298Z,6.80
2023-01-19T01:21:40.005Z,7.77
2023-01-19T01:24:07.715Z,7.63
2023-01-19T01:26:34.208Z,6.35
2023-01-19T01:29:01.130Z,8.15
2023-01-19T01:31:27.743Z,8.45
2023-01-19T01:33:54.283Z,7.00
2023-01-19T01:36:20.937Z,7.87
2023-01-19T01:38:47.569Z,5.80
2023-01-19T01:41:14.339Z,6.45
2023-01-19T01:46:15.701Z,5.45
2023-01-19T01:48:47.990Z,6.55
2023-01-19T01:51:26.032Z,6.28
2023-01-19T01:54:01.149Z,7.25
2023-01-19T01:56:40.140Z,6.45
2023-01-19T01:59:11.916Z,7.03
2023-01-19T02:01:58.040Z,5.55
2023-01-19T02:04:25.328Z,8.25
2023-01-19T02:07:10.800Z,6.00
2023-01-19T02:09:56.154Z,6.68
2023-01-19T02:12:42.255Z,6.55
2023-01-19T02:15:17.433Z,6.10
2023-01-19T02:17:44.432Z,7.43
2023-01-19T02:20:11.637Z,7.38
2023-01-19T02:22:47.172Z,6.03
2023-01-19T02:25:14.153Z,6.95
2023-01-19T02:27:41.215Z,6.72
2023-01-19T02:30:09.959Z,6.57
2023-01-19T02:32:36.597Z,7.95
2023-01-19T02:35:03.336Z,5.43
2023-01-19T02:37:32.902Z,7.35
2023-01-19T02:40:02.683Z,6.45
2023-01-19T02:42:40.721Z,7.10
2023-01-19T02:45:09.536Z,6.95
2023-01-19T02:47:44.938Z,5.55
2023-01-19T02:50:39.155Z,6.80
2023-01-19T02:53:25.135Z,6.53
2023-01-19T02:56:19.178Z,5.97
2023-01-19T02:58:57.705Z,5.95
2023-01-19T03:01:57.508Z,6.35
2023-01-19T03:04:51.730Z,6.13
2023-01-19T03:07:44.299Z,5.53
2023-01-19T03:11:15.585Z,4.85
2023-01-19T03:13:51.926Z,5.20
2023-01-19T03:16:35.531Z,5.60
2023-01-19T03:19:11.207Z,6.53
2023-01-19T03:21:42.869Z,5.47
2023-01-19T03:24:12.083Z,5.55
2023-01-19T03:26:47.419Z,6.50
2023-01-19T03:29:15.780Z,5.90
2023-01-19T03:31:47.188Z,6.10
2023-01-19T03:34:17.031Z,6.65
2023-01-19T03:36:45.515Z,5.63
2023-01-19T03:39:15.970Z,5.68
2023-01-19T03:41:47.080Z,5.47
2023-01-19T03:44:13.974Z,5.55
2023-01-19T03:46:40.925Z,5.00
2023-01-19T03:49:08.444Z,6.22
2023-01-19T03:51:39.820Z,6.20
2023-01-19T03:54:07.768Z,5.43
2023-01-19T03:56:34.301Z,5.20
2023-01-19T03:59:00.840Z,23.13
2023-01-19T04:01:27.631Z,5.77
2023-01-19T04:03:54.673Z,5.53
2023-01-19T04:06:21.540Z,5.40
2023-01-19T04:08:49.853Z,5.97
2023-01-19T04:11:16.721Z,6.13
2023-01-19T04:13:43.676Z,5.85
2023-01-19T04:16:11.090Z,6.28
2023-01-19T04:18:37.772Z,5.47
2023-01-19T04:21:06.904Z,5.80
2023-01-19T04:23:34.147Z,5.72
2023-01-19T04:26:03.927Z,7.00
2023-01-19T04:28:31.285Z,5.90
2023-01-19T04:33:24.790Z,5.55
2023-01-19T04:35:54.424Z,6.40
2023-01-19T04:38:21.306Z,6.50
2023-01-19T04:40:49.115Z,5.43
2023-01-19T04:43:15.897Z,7.05
2023-01-19T04:45:44.801Z,5.68
2023-01-19T04:48:12.199Z,5.82
2023-01-19T04:53:05.272Z,5.88
2023-01-19T04:55:31.772Z,6.40
2023-01-19T04:57:58.326Z,7.43
2023-01-19T05:00:24.833Z,6.67
2023-01-19T05:02:51.485Z,6.80
2023-01-19T05:05:18.338Z,5.60
2023-01-19T05:07:45.553Z,6.78
2023-01-19T05:10:12.719Z,5.28
2023-01-19T05:12:39.287Z,5.85
2023-01-19T05:15:07.824Z,5.40
2023-01-19T05:17:34.544Z,4.97
2023-01-19T05:20:01.158Z,5.60
2023-01-19T05:22:27.685Z,6.35
2023-01-19T05:24:54.478Z,5.60
2023-01-19T05:27:21.067Z,6.80
2023-01-19T05:29:47.665Z,5.72
2023-01-19T05:32:14.360Z,7.20
2023-01-19T05:34:40.966Z,5.88
2023-01-19T05:37:07.501Z,6.90
2023-01-19T05:39:34.178Z,5.45
2023-01-19T05:42:00.700Z,5.95
2023-01-19T05:44:27.324Z,6.20
2023-01-19T05:46:53.918Z,7.30
2023-01-19T05:49:20.473Z,7.38
2023-01-19T05:51:47.209Z,9.43
2023-01-19T05:54:15.635Z,4.10
2023-01-19T05:56:42.867Z,6.90
2023-01-19T05:59:10.546Z,6.78
2023-01-19T06:01:39.926Z,7.57
2023-01-19T06:04:07.120Z,6.38
2023-01-19T06:06:33.805Z,6.90
2023-01-19T06:09:00.349Z,7.22
2023-01-19T06:11:26.894Z,7.17
2023-01-19T06:13:53.424Z,7.30
2023-01-19T06:16:19.954Z,7.07
2023-01-19T06:18:46.628Z,7.53
2023-01-19T06:21:14.369Z,6.80
2023-01-19T06:23:41.417Z,6.82
2023-01-19T06:26:08.356Z,7.20
2023-01-19T06:28:34.928Z,7.60
2023-01-19T06:31:01.981Z,8.15
2023-01-19T06:33:28.823Z,6.30
2023-01-19T06:35:55.946Z,9.93
2023-01-19T06:38:22.905Z,11.40
2023-01-19T06:41:02.735Z,10.13
2023-01-19T06:43:29.965Z,9.70
2023-01-19T06:45:56.552Z,7.95
2023-01-19T06:48:23.964Z,7.32
2023-01-19T06:53:17.628Z,11.30
2023-01-19T06:55:44.290Z,8.35
2023-01-19T06:58:11.542Z,8.75
2023-01-19T07:00:38.220Z,8.20
2023-01-19T07:03:08.080Z,7.93
2023-01-19T07:05:36.015Z,8.00
2023-01-19T07:08:03.310Z,8.52
2023-01-19T07:11:24.989Z,7.15
2023-01-19T07:13:16.488Z,7.97
2023-01-19T07:18:10.311Z,8.40
2023-01-19T07:20:37.713Z,8.73
2023-01-19T07:25:30.972Z,7.20
2023-01-19T07:28:01.519Z,7.63
2023-01-19T07:30:28.646Z,7.32
2023-01-19T07:32:57.589Z,10.18
2023-01-19T07:35:25.036Z,8.23
2023-01-19T07:37:51.625Z,8.65
2023-01-19T07:40:18.240Z,7.18
2023-01-19T07:42:49.287Z,8.25
2023-01-19T07:45:20.889Z,8.30
2023-01-19T07:47:49.797Z,7.03
2023-01-19T07:50:18.013Z,6.95
2023-01-19T07:52:44.854Z,6.95
2023-01-19T07:55:11.441Z,6.93
2023-01-19T07:57:38.054Z,5.97
2023-01-19T08:00:05.079Z,8.48
2023-01-19T08:02:34.070Z,7.38
2023-01-19T08:05:00.644Z,7.45
2023-01-19T08:07:27.344Z,6.70
2023-01-19T08:09:53.877Z,6.05
2023-01-19T08:12:20.484Z,7.47
2023-01-19T08:14:47.067Z,5.65
2023-01-19T08:17:14.094Z,7.35
2023-01-19T08:19:42.220Z,8.25
2023-01-19T08:22:08.857Z,7.75
2023-01-19T08:24:35.380Z,9.65
2023-01-19T08:27:03.563Z,10.65
2023-01-19T08:29:31.935Z,10.48
2023-01-19T08:32:00.236Z,7.45
2023-01-19T08:34:27.237Z,7.05
2023-01-19T08:36:54.229Z,7.07
2023-01-19T08:39:20.836Z,7.90
2023-01-19T08:41:47.475Z,6.10
2023-01-19T08:44:14.165Z,6.95
2023-01-19T08:46:40.787Z,6.18
2023-01-19T08:49:07.934Z,5.95
2023-01-19T08:51:34.599Z,5.65
2023-01-19T08:54:01.211Z,5.78
2023-01-19T08:56:27.913Z,9.43
2023-01-19T09:01:41.565Z,5.82
2023-01-19T09:04:08.537Z,7.47
2023-01-19T09:06:35.202Z,6.05
2023-01-19T09:09:01.798Z,6.85
2023-01-19T09:11:28.356Z,5.75
2023-01-19T09:13:55.055Z,5.55
2023-01-19T09:16:21.707Z,7.43
2023-01-19T09:18:48.319Z,6.35
2023-01-19T09:21:15.257Z,6.20
2023-01-19T09:23:42.250Z,5.22
2023-01-19T09:26:09.928Z,6.75
2023-01-19T09:28:38.116Z,8.50
2023-01-19T09:31:07.440Z,6.65
2023-01-19T09:33:35.002Z,5.97
2023-01-19T09:38:32.754Z,8.15
2023-01-19T09:41:00.276Z,7.07
2023-01-19T09:46:22.307Z,5.13
2023-01-19T09:48:56.586Z,7.13
2023-01-19T09:51:36.279Z,5.88
2023-01-19T09:54:02.798Z,6.40
2023-01-19T09:56:31.018Z,6.57
2023-01-19T09:58:58.478Z,5.50
2023-01-19T10:04:40.153Z,6.10
2023-01-19T10:07:20.340Z,5.15
2023-01-19T10:10:02.461Z,5.57
2023-01-19T10:12:39.126Z,6.00
2023-01-19T10:15:11.532Z,5.15
2023-01-19T10:18:13.401Z,5.50
2023-01-19T10:20:51.955Z,5.80
2023-01-19T10:23:41.773Z,6.20
2023-01-19T10:26:13.772Z,4.20
2023-01-19T10:28:40.977Z,6.10
2023-01-19T10:31:09.628Z,4.95
2023-01-19T10:33:38.493Z,4.65
2023-01-19T10:36:30.073Z,5.47
2023-01-19T10:38:58.016Z,4.90
2023-01-19T10:41:31.762Z,5.05
2023-01-19T10:44:04.278Z,4.93
2023-01-19T10:46:47.808Z,4.22
2023-01-19T10:49:26.614Z,4.65
2023-01-19T10:51:54.299Z,4.38
2023-01-19T10:54:22.187Z,4.70
2023-01-19T10:57:02.820Z,4.95
2023-01-19T10:59:35.411Z,4.10
2023-01-19T11:02:27.029Z,4.60
2023-01-19T11:05:02.496Z,5.10
2023-01-19T11:20:21.732Z,6.72
2023-01-19T11:22:49.101Z,4.75
2023-01-19T11:30:23.004Z,6.13
2023-01-19T11:32:49.664Z,5.47
2023-01-19T12:03:31.503Z,7.20
2023-01-19T12:06:06.910Z,4.95
2023-01-19T12:08:39.258Z,4.05
2023-01-19T12:11:08.946Z,4.20
2023-01-19T12:13:36.320Z,4.50
2023-01-19T12:18:35.931Z,4.97
2023-01-19T12:21:04.197Z,3.65
2023-01-19T12:23:58.588Z,3.95
2023-01-19T12:26:27.982Z,3.08
2023-01-19T12:28:59.187Z,3.70
2023-01-19T12:31:25.924Z,3.92
2023-01-19T12:33:53.001Z,4.80
2023-01-19T12:36:35.541Z,4.40
2023-01-19T12:52:24.400Z,3.05
2023-01-19T12:54:54.851Z,2.78
2023-01-19T12:57:31.712Z,3.45
2023-01-19T13:00:05.070Z,7.43
2023-01-19T13:02:43.480Z,6.80
2023-01-19T13:05:14.765Z,6.57
2023-01-19T13:08:06.279Z,3.80
2023-01-19T13:11:02.097Z,5.00
2023-01-19T13:13:30.123Z,10.20
2023-01-19T13:16:19.823Z,6.80
2023-01-19T13:18:59.342Z,2.60
2023-01-19T13:21:28.902Z,3.42
2023-01-19T13:23:57.484Z,3.50
2023-01-19T13:26:27.853Z,2.72
2023-01-19T13:29:06.587Z,2.70
2023-01-19T13:31:38.460Z,2.13
2023-01-19T13:34:13.951Z,2.30
2023-01-19T13:36:45.540Z,2.53
2023-01-19T13:39:18.593Z,3.17
2023-01-19T13:41:46.657Z,2.80
2023-01-19T13:44:23.253Z,3.13
2023-01-19T13:46:51.769Z,2.97
2023-01-19T13:49:35.431Z,3.85
2023-01-19T14:06:48.946Z,2.47
2023-01-19T14:09:18.797Z,1.92
2023-01-19T14:12:03.778Z,2.00
2023-01-19T14:14:30.605Z,2.42
2023-01-19T14:16:57.150Z,1.95
2023-01-19T14:33:55.468Z,4.20
2023-01-19T14:36:26.651Z,3.47
2023-01-19T14:38:54.748Z,5.10
2023-01-19T14:41:30.804Z,5.32
2023-01-19T14:43:59.289Z,4.75
2023-01-19T14:46:26.285Z,2.55
2023-01-19T14:49:00.743Z,4.70
2023-01-19T14:51:28.293Z,3.30
2023-01-19T14:53:58.853Z,3.35
2023-01-19T14:56:31.433Z,2.95
2023-01-19T14:59:00.817Z,4.68
2023-01-19T15:01:31.869Z,3.47
2023-01-19T15:03:58.826Z,2.83
2023-01-19T15:06:26.621Z,3.28
2023-01-19T15:08:54.253Z,4.28
2023-01-19T15:11:27.902Z,4.88
2023-01-19T15:13:55.630Z,2.38
2023-01-19T15:16:23.885Z,2.28
2023-01-19T15:18:50.579Z,2.95
2023-01-19T15:21:26.638Z,13.18
2023-01-19T15:23:54.941Z,3.88
2023-01-19T15:26:24.096Z,3.88
2023-01-19T15:28:51.335Z,3.30
2023-01-19T15:31:20.841Z,3.42
2023-01-19T15:33:47.892Z,3.30
2023-01-19T15:36:18.114Z,3.65
2023-01-19T15:38:45.841Z,3.00
2023-01-19T15:41:17.170Z,2.97
2023-01-19T15:43:43.843Z,3.85
2023-01-19T15:46:15.597Z,3.47
2023-01-19T15:48:42.574Z,3.47
2023-01-19T15:51:14.268Z,3.80
2023-01-19T15:53:41.517Z,3.58
2023-01-19T15:56:34.133Z,4.00
2023-01-19T15:59:01.577Z,4.22
2023-01-19T16:04:01.491Z,4.30
2023-01-19T16:06:28.973Z,7.00
2023-01-19T16:11:27.543Z,7.05
2023-01-19T16:13:54.174Z,10.25
2023-01-19T16:16:23.555Z,12.40
2023-01-19T16:18:50.531Z,12.48
2023-01-19T16:21:17.616Z,11.88
2023-01-19T16:23:44.226Z,6.18
2023-01-19T16:26:34.991Z,10.80
2023-01-19T16:29:10.435Z,4.80
2023-01-19T16:31:41.722Z,1.67
2023-01-19T16:34:09.406Z,2.17
2023-01-19T16:36:38.175Z,1.70
2023-01-19T16:39:08.423Z,1.70
2023-01-19T16:41:35.835Z,2.42
2023-01-19T16:46:37.581Z,1.92
2023-01-19T16:49:06.544Z,1.70
2023-01-19T16:51:33.672Z,2.58
2023-01-19T16:54:00.326Z,2.10
2023-01-19T16:56:26.921Z,1.88
2023-01-19T16:58:55.273Z,8.32
2023-01-19T17:01:23.235Z,8.35
2023-01-19T17:03:50.220Z,7.78
2023-01-19T17:06:20.236Z,5.40
2023-01-19T17:08:47.601Z,4.38
2023-01-19T17:14:05.371Z,3.85
2023-01-19T17:16:33.960Z,6.72
2023-01-19T17:19:02.721Z,3.60
2023-01-19T17:21:29.706Z,4.50
2023-01-19T17:23:57.384Z,4.30
2023-01-19T17:26:25.739Z,4.60
2023-01-19T17:28:52.425Z,4.78
2023-01-19T17:31:21.884Z,21.75
2023-01-19T17:33:50.342Z,17.92
2023-01-19T17:36:22.817Z,11.13
2023-01-19T17:38:50.268Z,16.80
2023-01-19T17:43:45.161Z,15.88
2023-01-19T17:46:12.191Z,14.93
2023-01-19T17:48:39.467Z,7.70
2023-01-19T17:51:08.549Z,4.00
2023-01-19T17:53:40.193Z,4.43
2023-01-19T17:56:10.275Z,7.30
2023-01-19T17:58:37.248Z,8.15
2023-01-19T18:01:25.121Z,5.50
2023-01-19T18:03:53.010Z,6.15
2023-01-19T18:06:20.714Z,9.45
2023-01-19T18:08:49.387Z,11.48
2023-01-19T18:11:18.490Z,10.60
2023-01-19T18:13:46.576Z,10.20
2023-01-19T18:16:19.618Z,6.60
2023-01-19T18:18:46.338Z,6.45
2023-01-19T18:21:14.398Z,6.55
2023-01-19T18:23:45.753Z,5.63
2023-01-19T18:26:15.113Z,22.15
2023-01-19T18:28:41.906Z,30.90
2023-01-19T18:31:11.179Z,26.08
2023-01-19T18:33:38.925Z,30.98
2023-01-19T18:36:06.624Z,20.95
2023-01-19T18:38:34.121Z,18.10
2023-01-19T18:41:21.829Z,23.83
2023-01-19T18:43:48.663Z,15.63
2023-01-19T18:46:16.258Z,13.90
2023-01-19T18:48:43.115Z,14.50
2023-01-19T18:51:14.430Z,23.73
2023-01-19T18:53:41.443Z,18.70
2023-01-19T18:56:11.136Z,13.38
2023-01-19T18:58:38.557Z,12.70
2023-01-19T19:03:32.043Z,7.63
2023-01-19T19:06:03.534Z,6.85
2023-01-19T19:08:30.310Z,6.15
2023-01-19T19:10:56.834Z,5.53
2023-01-19T19:13:23.687Z,6.80
2023-01-19T19:15:52.445Z,6.05
2023-01-19T19:18:19.171Z,7.35
2023-01-19T19:20:45.911Z,13.55
2023-01-19T19:23:12.537Z,12.23
2023-01-19T19:25:39.437Z,9.52
2023-01-19T19:28:06.485Z,11.18
2023-01-19T19:30:34.639Z,9.55
2023-01-19T19:33:01.640Z,6.85
2023-01-19T19:35:28.454Z,8.35
2023-01-19T19:37:57.912Z,5.05
2023-01-19T19:40:26.309Z,4.60
2023-01-19T19:42:53.121Z,5.47
2023-01-19T19:45:19.864Z,6.30
2023-01-19T19:47:46.504Z,5.35
2023-01-19T19:50:13.343Z,6.13
2023-01-19T19:52:43.248Z,7.00
2023-01-19T19:55:10.992Z,9.40
2023-01-19T19:57:37.775Z,10.65
2023-01-19T20:00:05.447Z,11.45
2023-01-19T20:02:32.387Z,13.80
2023-01-19T20:04:59.098Z,11.60
2023-01-19T20:07:25.737Z,9.25
2023-01-19T20:09:53.560Z,28.02
2023-01-19T20:12:20.159Z,24.15
2023-01-19T20:14:46.788Z,10.48
2023-01-19T20:17:13.312Z,12.07
2023-01-19T20:19:39.893Z,8.20
2023-01-19T20:22:07.228Z,9.13
2023-01-19T20:27:00.423Z,7.93
2023-01-19T20:29:27.020Z,7.88
2023-01-19T20:31:55.361Z,7.73
2023-01-19T20:34:26.127Z,7.70
2023-01-19T20:36:53.970Z,6.68
2023-01-19T20:39:22.459Z,6.82
2023-01-19T20:41:51.156Z,6.68
2023-01-19T20:44:22.336Z,3.95
2023-01-19T20:46:49.634Z,1.80
2023-01-19T20:49:16.185Z,12.27
2023-01-19T20:51:45.283Z,11.40
2023-01-19T20:54:17.045Z,7.93
2023-01-19T20:56:44.148Z,4.47
2023-01-19T20:59:12.228Z,8.90
2023-01-19T21:01:39.983Z,3.95
2023-01-19T21:04:07.509Z,3.90
2023-01-19T21:09:01.240Z,4.72
2023-01-19T21:11:28.370Z,4.35
2023-01-19T21:13:57.952Z,3.65
2023-01-19T21:16:31.573Z,3.08
2023-01-19T21:18:58.656Z,2.20
2023-01-19T21:21:30.710Z,2.90
2023-01-19T21:24:01.823Z,2.05
2023-01-19T21:26:31.622Z,1.80
2023-01-19T21:28:59.479Z,2.53
2023-01-19T21:31:27.724Z,2.50
2023-01-19T21:33:54.443Z,4.75
2023-01-19T21:36:22.521Z,6.55
2023-01-19T21:38:51.723Z,3.38
2023-01-19T21:41:18.764Z,3.10
2023-01-19T21:43:46.297Z,4.57
2023-01-19T21:46:17.629Z,3.63
2023-01-19T21:48:45.970Z,3.60
2023-01-19T21:51:13.619Z,2.22
2023-01-19T21:53:40.678Z,1.40
2023-01-19T21:56:11.284Z,2.28
2023-01-19T21:58:38.278Z,1.90
2023-01-19T22:01:09.780Z,2.10
2023-01-19T22:03:36.524Z,1.65
2023-01-19T22:06:05.656Z,1.48
2023-01-19T22:08:32.458Z,1.30
2023-01-19T22:11:05.282Z,0.88
2023-01-19T22:13:33.323Z,1.00
2023-01-19T22:16:04.677Z,0.90
2023-01-19T22:18:31.305Z,0.80
2023-01-19T22:21:11.229Z,0.95
2023-01-19T22:23:38.729Z,1.00
2023-01-19T22:26:06.013Z,1.83
2023-01-19T22:28:33.372Z,1.10
2023-01-19T22:33:30.819Z,1.30
2023-01-19T22:36:19.456Z,0.80
2023-01-19T22:39:00.505Z,0.65
2023-01-19T22:41:29.663Z,0.80
2023-01-19T22:43:58.616Z,1.30
2023-01-19T22:46:27.824Z,1.10
2023-01-19T22:48:55.932Z,1.13
2023-01-19T22:51:23.910Z,0.60
2023-01-19T22:53:56.796Z,0.95
2023-01-19T22:56:25.490Z,0.30
2023-01-19T22:58:53.200Z,0.38
2023-01-19T23:01:28.068Z,0.38
2023-01-19T23:03:55.036Z,0.38
2023-01-19T23:06:23.953Z,0.52
2023-01-19T23:08:51.461Z,0.20
2023-01-19T23:11:20.476Z,0.30
2023-01-19T23:13:47.536Z,0.35
2023-01-19T23:16:14.721Z,0.65
2023-01-19T23:18:42.247Z,1.30
2023-01-19T23:21:17.104Z,0.70
2023-01-19T23:23:44.862Z,1.25
2023-01-19T23:26:12.829Z,1.88
2023-01-19T23:28:40.318Z,0.70
2023-01-19T23:31:16.766Z,0.70
2023-01-19T23:33:44.481Z,0.80
2023-01-19T23:36:12.393Z,1.20
2023-01-19T23:38:39.185Z,1.75
2023-01-19T23:41:05.904Z,1.98
2023-01-19T23:43:32.720Z,1.10
2023-01-19T23:46:04.301Z,1.00
2023-01-19T23:48:31.309Z,0.88
2023-01-19T23:50:57.853Z,1.25
2023-01-19T23:53:24.641Z,2.38
2023-01-19T23:55:51.327Z,0.70
2023-01-19T23:58:17.879Z,1.13
